sensor_id;sensor_type;location;lat;lon;timestamp;P1;durP1;ratioP1;P2;durP2;ratioP2
23304;SDS011;11821;51.456;8.844;2023-04-10T00:01:44;15.35;;;10.32;;
23304;SDS011;11821;51.456;8.844;2023-04-10T00:04:11;17.05;;;11.05;;
23304;SDS011;11821;51.456;8.844;2023-04-10T00:06:38;13.38;;;10.65;;
23304;SDS011;11821;51.456;8.844;2023-04-10T00:09:06;18.67;;;11.48;;
23304;SDS011;11821;51.456;8.844;2023-04-10T00:11:33;14.65;;;11.25;;
23304;SDS011;11821;51.456;8.844;2023-04-10T00:13:59;12.40;;;10.18;;
23304;SDS011;11821;51.456;8.844;2023-04-10T00:16:26;16.13;;;10.82;;
23304;SDS011;11821;51.456;8.844;2023-04-10T00:18:53;14.63;;;10.63;;
23304;SDS011;11821;51.456;8.844;2023-04-10T00:21:19;16.05;;;11.13;;
23304;SDS011;11821;51.456;8.844;2023-04-10T00:23:46;17.20;;;11.82;;
23304;SDS011;11821;51.456;8.844;2023-04-10T00:26:13;16.40;;;10.88;;
23304;SDS011;11821;51.456;8.844;2023-04-10T00:28:41;12.77;;;10.63;;
23304;SDS011;11821;51.456;8.844;2023-04-10T00:31:08;13.82;;;11.57;;
23304;SDS011;11821;51.456;8.844;2023-04-10T00:33:34;13.38;;;11.20;;
23304;SDS011;11821;51.456;8.844;2023-04-10T00:36:01;14.45;;;11.70;;
23304;SDS011;11821;51.456;8.844;2023-04-10T00:38:28;15.48;;;11.63;;
23304;SDS011;11821;51.456;8.844;2023-04-10T00:40:54;16.55;;;11.52;;
23304;SDS011;11821;51.456;8.844;2023-04-10T00:43:21;14.63;;;11.40;;
23304;SDS011;11821;51.456;8.844;2023-04-10T00:45:48;16.88;;;13.30;;
23304;SDS011;11821;51.456;8.844;2023-04-10T00:48:15;19.02;;;13.07;;
23304;SDS011;11821;51.456;8.844;2023-04-10T00:50:42;17.50;;;12.65;;
23304;SDS011;11821;51.456;8.844;2023-04-10T00:53:08;16.20;;;12.82;;
23304;SDS011;11821;51.456;8.844;2023-04-10T00:55:35;15.07;;;11.63;;
23304;SDS011;11821;51.456;8.844;2023-04-10T00:58:02;12.82;;;11.48;;
23304;SDS011;11821;51.456;8.844;2023-04-10T01:00:29;16.60;;;11.77;;
23304;SDS011;11821;51.456;8.844;2023-04-10T01:02:55;15.55;;;11.75;;
23304;SDS011;11821;51.456;8.844;2023-04-10T01:05:22;14.13;;;11.07;;
23304;SDS011;11821;51.456;8.844;2023-04-10T01:08:01;14.48;;;10.82;;
23304;SDS011;11821;51.456;8.844;2023-04-10T01:15:48;13.88;;;11.70;;
23304;SDS011;11821;51.456;8.844;2023-04-10T01:20:43;16.85;;;11.63;;
23304;SDS011;11821;51.456;8.844;2023-04-10T01:26:00;17.42;;;12.15;;
23304;SDS011;11821;51.456;8.844;2023-04-10T01:31:05;16.00;;;12.07;;
23304;SDS011;11821;51.456;8.844;2023-04-10T01:33:38;17.92;;;11.80;;
23304;SDS011;11821;51.456;8.844;2023-04-10T01:38:32;21.75;;;13.93;;
23304;SDS011;11821;51.456;8.844;2023-04-10T01:40:59;22.25;;;14.25;;
23304;SDS011;11821;51.456;8.844;2023-04-10T01:43:28;21.30;;;13.38;;
23304;SDS011;11821;51.456;8.844;2023-04-10T01:45:56;18.60;;;12.65;;
23304;SDS011;11821;51.456;8.844;2023-04-10T01:48:24;18.33;;;13.32;;
23304;SDS011;11821;51.456;8.844;2023-04-10T01:50:51;17.88;;;12.48;;
23304;SDS011;11821;51.456;8.844;2023-04-10T01:53:20;14.88;;;11.75;;
23304;SDS011;11821;51.456;8.844;2023-04-10T01:55:47;15.50;;;11.98;;
23304;SDS011;11821;51.456;8.844;2023-04-10T01:58:14;17.77;;;12.48;;
23304;SDS011;11821;51.456;8.844;2023-04-10T02:00:41;18.77;;;12.77;;
23304;SDS011;11821;51.456;8.844;2023-04-10T02:03:09;16.30;;;12.80;;
23304;SDS011;11821;51.456;8.844;2023-04-10T02:10:57;14.85;;;11.68;;
23304;SDS011;11821;51.456;8.844;2023-04-10T02:13:26;14.55;;;10.68;;
23304;SDS011;11821;51.456;8.844;2023-04-10T02:15:54;13.25;;;11.32;;
23304;SDS011;11821;51.456;8.844;2023-04-10T02:18:21;15.60;;;12.02;;
23304;SDS011;11821;51.456;8.844;2023-04-10T02:20:49;17.42;;;11.82;;
23304;SDS011;11821;51.456;8.844;2023-04-10T02:23:17;16.35;;;12.27;;
23304;SDS011;11821;51.456;8.844;2023-04-10T02:25:45;14.90;;;10.77;;
23304;SDS011;11821;51.456;8.844;2023-04-10T02:28:11;17.15;;;12.45;;
23304;SDS011;11821;51.456;8.844;2023-04-10T02:30:38;30.10;;;12.23;;
23304;SDS011;11821;51.456;8.844;2023-04-10T02:33:04;16.75;;;12.75;;
23304;SDS011;11821;51.456;8.844;2023-04-10T02:35:32;18.10;;;12.60;;
23304;SDS011;11821;51.456;8.844;2023-04-10T02:37:58;17.45;;;12.70;;
23304;SDS011;11821;51.456;8.844;2023-04-10T02:40:26;19.80;;;13.65;;
23304;SDS011;11821;51.456;8.844;2023-04-10T02:43:04;18.52;;;12.50;;
23304;SDS011;11821;51.456;8.844;2023-04-10T02:45:31;20.23;;;12.48;;
23304;SDS011;11821;51.456;8.844;2023-04-10T02:47:58;19.38;;;12.85;;
23304;SDS011;11821;51.456;8.844;2023-04-10T02:50:24;21.20;;;13.40;;
23304;SDS011;11821;51.456;8.844;2023-04-10T02:52:55;19.48;;;13.00;;
23304;SDS011;11821;51.456;8.844;2023-04-10T02:55:22;19.92;;;12.95;;
23304;SDS011;11821;51.456;8.844;2023-04-10T02:57:48;21.02;;;13.43;;
23304;SDS011;11821;51.456;8.844;2023-04-10T03:00:16;18.75;;;13.40;;
23304;SDS011;11821;51.456;8.844;2023-04-10T03:03:13;21.38;;;13.57;;
23304;SDS011;11821;51.456;8.844;2023-04-10T03:05:47;18.02;;;12.90;;
23304;SDS011;11821;51.456;8.844;2023-04-10T03:08:16;21.35;;;13.40;;
23304;SDS011;11821;51.456;8.844;2023-04-10T03:10:44;19.20;;;12.48;;
23304;SDS011;11821;51.456;8.844;2023-04-10T03:13:11;18.70;;;13.27;;
23304;SDS011;11821;51.456;8.844;2023-04-10T03:15:37;19.08;;;13.45;;
23304;SDS011;11821;51.456;8.844;2023-04-10T03:18:04;18.25;;;12.77;;
23304;SDS011;11821;51.456;8.844;2023-04-10T03:20:31;18.73;;;13.60;;
23304;SDS011;11821;51.456;8.844;2023-04-10T03:22:58;17.65;;;12.30;;
23304;SDS011;11821;51.456;8.844;2023-04-10T03:25:26;20.75;;;12.73;;
23304;SDS011;11821;51.456;8.844;2023-04-10T03:27:52;19.35;;;13.88;;
23304;SDS011;11821;51.456;8.844;2023-04-10T03:30:19;15.23;;;10.82;;
23304;SDS011;11821;51.456;8.844;2023-04-10T03:32:47;19.33;;;13.52;;
23304;SDS011;11821;51.456;8.844;2023-04-10T03:35:13;20.48;;;14.43;;
23304;SDS011;11821;51.456;8.844;2023-04-10T03:37:40;25.98;;;16.05;;
23304;SDS011;11821;51.456;8.844;2023-04-10T03:40:07;30.23;;;18.40;;
23304;SDS011;11821;51.456;8.844;2023-04-10T03:42:34;23.92;;;17.17;;
23304;SDS011;11821;51.456;8.844;2023-04-10T03:45:02;26.20;;;16.40;;
23304;SDS011;11821;51.456;8.844;2023-04-10T03:47:29;25.10;;;15.13;;
23304;SDS011;11821;51.456;8.844;2023-04-10T03:49:58;21.42;;;14.48;;
23304;SDS011;11821;51.456;8.844;2023-04-10T03:52:26;20.70;;;14.25;;
23304;SDS011;11821;51.456;8.844;2023-04-10T03:54:55;22.02;;;14.18;;
23304;SDS011;11821;51.456;8.844;2023-04-10T03:57:25;18.58;;;13.43;;
23304;SDS011;11821;51.456;8.844;2023-04-10T03:59:58;21.83;;;12.75;;
23304;SDS011;11821;51.456;8.844;2023-04-10T04:02:27;20.33;;;13.98;;
23304;SDS011;11821;51.456;8.844;2023-04-10T04:04:54;20.60;;;13.65;;
23304;SDS011;11821;51.456;8.844;2023-04-10T04:07:39;22.70;;;13.95;;
23304;SDS011;11821;51.456;8.844;2023-04-10T04:10:26;14.20;;;9.93;;
23304;SDS011;11821;51.456;8.844;2023-04-10T04:13:25;24.65;;;15.07;;
23304;SDS011;11821;51.456;8.844;2023-04-10T04:16:27;24.25;;;14.82;;
23304;SDS011;11821;51.456;8.844;2023-04-10T04:19:16;25.33;;;14.77;;
23304;SDS011;11821;51.456;8.844;2023-04-10T04:22:03;27.58;;;15.95;;
23304;SDS011;11821;51.456;8.844;2023-04-10T04:24:48;30.02;;;15.70;;
23304;SDS011;11821;51.456;8.844;2023-04-10T04:27:44;21.10;;;14.02;;
23304;SDS011;11821;51.456;8.844;2023-04-10T04:30:29;20.48;;;13.77;;
23304;SDS011;11821;51.456;8.844;2023-04-10T04:33:15;23.92;;;14.10;;
23304;SDS011;11821;51.456;8.844;2023-04-10T04:35:55;22.30;;;14.35;;
23304;SDS011;11821;51.456;8.844;2023-04-10T04:38:37;22.65;;;15.77;;
23304;SDS011;11821;51.456;8.844;2023-04-10T04:41:30;19.25;;;13.57;;
23304;SDS011;11821;51.456;8.844;2023-04-10T04:43:57;19.48;;;13.35;;
23304;SDS011;11821;51.456;8.844;2023-04-10T04:46:43;22.75;;;15.05;;
23304;SDS011;11821;51.456;8.844;2023-04-10T04:49:30;23.92;;;14.70;;
23304;SDS011;11821;51.456;8.844;2023-04-10T04:52:25;22.23;;;15.20;;
23304;SDS011;11821;51.456;8.844;2023-04-10T04:55:13;24.27;;;15.43;;
23304;SDS011;11821;51.456;8.844;2023-04-10T04:57:51;24.52;;;15.00;;
23304;SDS011;11821;51.456;8.844;2023-04-10T05:00:40;23.60;;;15.35;;
23304;SDS011;11821;51.456;8.844;2023-04-10T05:06:15;22.63;;;14.65;;
23304;SDS011;11821;51.456;8.844;2023-04-10T05:09:15;25.77;;;15.68;;
23304;SDS011;11821;51.456;8.844;2023-04-10T05:11:51;27.20;;;16.33;;
23304;SDS011;11821;51.456;8.844;2023-04-10T05:14:37;25.20;;;15.55;;
23304;SDS011;11821;51.456;8.844;2023-04-10T05:17:19;24.50;;;15.80;;
23304;SDS011;11821;51.456;8.844;2023-04-10T05:19:56;20.77;;;14.40;;
23304;SDS011;11821;51.456;8.844;2023-04-10T05:22:43;23.15;;;14.55;;
23304;SDS011;11821;51.456;8.844;2023-04-10T05:25:15;22.17;;;14.05;;
23304;SDS011;11821;51.456;8.844;2023-04-10T05:28:12;18.30;;;12.80;;
23304;SDS011;11821;51.456;8.844;2023-04-10T05:30:57;19.88;;;14.70;;
23304;SDS011;11821;51.456;8.844;2023-04-10T05:33:32;21.50;;;14.13;;
23304;SDS011;11821;51.456;8.844;2023-04-10T05:36:22;20.05;;;13.93;;
23304;SDS011;11821;51.456;8.844;2023-04-10T05:38:59;22.75;;;14.15;;
23304;SDS011;11821;51.456;8.844;2023-04-10T05:41:52;81.60;;;45.25;;
23304;SDS011;11821;51.456;8.844;2023-04-10T05:44:42;29.92;;;19.67;;
23304;SDS011;11821;51.456;8.844;2023-04-10T05:47:35;23.38;;;15.63;;
23304;SDS011;11821;51.456;8.844;2023-04-10T05:50:40;19.75;;;14.55;;
23304;SDS011;11821;51.456;8.844;2023-04-10T05:53:27;20.83;;;13.73;;
23304;SDS011;11821;51.456;8.844;2023-04-10T05:56:20;17.65;;;13.75;;
23304;SDS011;11821;51.456;8.844;2023-04-10T05:59:05;22.02;;;15.02;;
23304;SDS011;11821;51.456;8.844;2023-04-10T06:01:50;21.50;;;14.60;;
23304;SDS011;11821;51.456;8.844;2023-04-10T06:04:17;20.73;;;14.30;;
23304;SDS011;11821;51.456;8.844;2023-04-10T06:06:50;21.05;;;14.65;;
23304;SDS011;11821;51.456;8.844;2023-04-10T06:09:17;20.25;;;13.85;;
23304;SDS011;11821;51.456;8.844;2023-04-10T06:11:44;19.45;;;13.85;;
23304;SDS011;11821;51.456;8.844;2023-04-10T06:14:10;21.20;;;14.02;;
23304;SDS011;11821;51.456;8.844;2023-04-10T06:16:42;20.90;;;14.60;;
23304;SDS011;11821;51.456;8.844;2023-04-10T06:19:09;21.00;;;14.77;;
23304;SDS011;11821;51.456;8.844;2023-04-10T06:21:36;21.15;;;16.05;;
23304;SDS011;11821;51.456;8.844;2023-04-10T06:24:03;21.52;;;13.82;;
23304;SDS011;11821;51.456;8.844;2023-04-10T06:26:30;19.17;;;13.73;;
23304;SDS011;11821;51.456;8.844;2023-04-10T06:28:57;27.17;;;17.67;;
23304;SDS011;11821;51.456;8.844;2023-04-10T06:31:24;39.17;;;23.75;;
23304;SDS011;11821;51.456;8.844;2023-04-10T06:33:50;50.78;;;30.92;;
23304;SDS011;11821;51.456;8.844;2023-04-10T06:36:17;23.85;;;17.08;;
23304;SDS011;11821;51.456;8.844;2023-04-10T06:38:54;45.15;;;24.75;;
23304;SDS011;11821;51.456;8.844;2023-04-10T06:41:22;22.83;;;16.75;;
23304;SDS011;11821;51.456;8.844;2023-04-10T06:43:53;24.63;;;17.63;;
23304;SDS011;11821;51.456;8.844;2023-04-10T06:46:19;32.95;;;21.73;;
23304;SDS011;11821;51.456;8.844;2023-04-10T06:48:46;24.50;;;17.15;;
23304;SDS011;11821;51.456;8.844;2023-04-10T06:51:12;22.73;;;17.42;;
23304;SDS011;11821;51.456;8.844;2023-04-10T06:53:39;23.63;;;16.75;;
23304;SDS011;11821;51.456;8.844;2023-04-10T06:56:05;27.15;;;20.35;;
23304;SDS011;11821;51.456;8.844;2023-04-10T06:58:32;18.75;;;14.23;;
23304;SDS011;11821;51.456;8.844;2023-04-10T07:00:59;17.33;;;14.70;;
23304;SDS011;11821;51.456;8.844;2023-04-10T07:03:29;18.75;;;14.23;;
23304;SDS011;11821;51.456;8.844;2023-04-10T07:05:57;18.75;;;14.05;;
23304;SDS011;11821;51.456;8.844;2023-04-10T07:08:23;19.38;;;14.10;;
23304;SDS011;11821;51.456;8.844;2023-04-10T07:10:50;22.20;;;14.68;;
23304;SDS011;11821;51.456;8.844;2023-04-10T07:13:16;17.33;;;14.45;;
23304;SDS011;11821;51.456;8.844;2023-04-10T07:15:43;22.70;;;16.65;;
23304;SDS011;11821;51.456;8.844;2023-04-10T07:18:09;25.50;;;17.15;;
23304;SDS011;11821;51.456;8.844;2023-04-10T07:20:36;19.80;;;15.70;;
23304;SDS011;11821;51.456;8.844;2023-04-10T07:23:02;22.25;;;15.10;;
23304;SDS011;11821;51.456;8.844;2023-04-10T07:25:29;19.55;;;14.93;;
23304;SDS011;11821;51.456;8.844;2023-04-10T07:27:56;19.48;;;14.23;;
23304;SDS011;11821;51.456;8.844;2023-04-10T07:30:22;15.75;;;13.27;;
23304;SDS011;11821;51.456;8.844;2023-04-10T07:32:49;18.52;;;15.07;;
23304;SDS011;11821;51.456;8.844;2023-04-10T07:35:16;22.92;;;14.48;;
23304;SDS011;11821;51.456;8.844;2023-04-10T07:37:42;18.27;;;13.68;;
23304;SDS011;11821;51.456;8.844;2023-04-10T07:40:09;18.50;;;14.13;;
23304;SDS011;11821;51.456;8.844;2023-04-10T07:42:36;16.90;;;13.43;;
23304;SDS011;11821;51.456;8.844;2023-04-10T07:45:02;16.15;;;13.52;;
23304;SDS011;11821;51.456;8.844;2023-04-10T07:47:29;17.13;;;13.60;;
23304;SDS011;11821;51.456;8.844;2023-04-10T07:49:56;37.05;;;23.15;;
23304;SDS011;11821;51.456;8.844;2023-04-10T07:52:22;13.98;;;11.40;;
23304;SDS011;11821;51.456;8.844;2023-04-10T07:54:49;12.13;;;10.82;;
23304;SDS011;11821;51.456;8.844;2023-04-10T07:57:15;10.88;;;9.77;;
23304;SDS011;11821;51.456;8.844;2023-04-10T07:59:42;12.20;;;10.00;;
23304;SDS011;11821;51.456;8.844;2023-04-10T08:02:15;10.82;;;9.73;;
23304;SDS011;11821;51.456;8.844;2023-04-10T08:04:42;9.98;;;8.98;;
23304;SDS011;11821;51.456;8.844;2023-04-10T08:07:12;9.75;;;8.75;;
23304;SDS011;11821;51.456;8.844;2023-04-10T08:09:39;9.07;;;8.27;;
23304;SDS011;11821;51.456;8.844;2023-04-10T08:12:05;8.50;;;7.60;;
23304;SDS011;11821;51.456;8.844;2023-04-10T08:14:32;8.85;;;8.02;;
23304;SDS011;11821;51.456;8.844;2023-04-10T08:16:59;8.98;;;8.07;;
23304;SDS011;11821;51.456;8.844;2023-04-10T08:19:25;8.45;;;7.65;;
23304;SDS011;11821;51.456;8.844;2023-04-10T08:21:52;8.63;;;7.88;;
23304;SDS011;11821;51.456;8.844;2023-04-10T08:24:18;8.88;;;8.07;;
23304;SDS011;11821;51.456;8.844;2023-04-10T08:26:47;9.05;;;8.13;;
23304;SDS011;11821;51.456;8.844;2023-04-10T08:29:14;8.52;;;7.70;;
23304;SDS011;11821;51.456;8.844;2023-04-10T08:31:40;9.32;;;8.43;;
23304;SDS011;11821;51.456;8.844;2023-04-10T08:34:07;8.10;;;7.30;;
23304;SDS011;11821;51.456;8.844;2023-04-10T08:36:33;8.35;;;7.55;;
23304;SDS011;11821;51.456;8.844;2023-04-10T08:39:00;10.00;;;8.70;;
23304;SDS011;11821;51.456;8.844;2023-04-10T08:41:27;8.25;;;7.55;;
23304;SDS011;11821;51.456;8.844;2023-04-10T08:43:53;8.68;;;7.88;;
23304;SDS011;11821;51.456;8.844;2023-04-10T08:46:22;7.97;;;7.05;;
23304;SDS011;11821;51.456;8.844;2023-04-10T08:48:52;7.50;;;6.90;;
23304;SDS011;11821;51.456;8.844;2023-04-10T08:51:21;7.78;;;7.07;;
23304;SDS011;11821;51.456;8.844;2023-04-10T08:53:51;8.57;;;7.68;;
23304;SDS011;11821;51.456;8.844;2023-04-10T08:56:19;7.78;;;7.07;;
23304;SDS011;11821;51.456;8.844;2023-04-10T08:58:46;7.38;;;6.78;;
23304;SDS011;11821;51.456;8.844;2023-04-10T09:01:12;7.68;;;6.78;;
23304;SDS011;11821;51.456;8.844;2023-04-10T09:03:40;8.88;;;8.07;;
23304;SDS011;11821;51.456;8.844;2023-04-10T09:06:06;7.15;;;6.50;;
23304;SDS011;11821;51.456;8.844;2023-04-10T09:08:34;7.28;;;6.68;;
23304;SDS011;11821;51.456;8.844;2023-04-10T09:11:00;7.65;;;7.00;;
23304;SDS011;11821;51.456;8.844;2023-04-10T09:16:03;8.90;;;8.10;;
23304;SDS011;11821;51.456;8.844;2023-04-10T09:18:40;7.88;;;7.25;;
23304;SDS011;11821;51.456;8.844;2023-04-10T09:21:07;8.48;;;7.68;;
23304;SDS011;11821;51.456;8.844;2023-04-10T09:23:34;8.38;;;7.68;;
23304;SDS011;11821;51.456;8.844;2023-04-10T09:26:01;7.93;;;7.30;;
23304;SDS011;11821;51.456;8.844;2023-04-10T09:28:30;7.75;;;7.05;;
23304;SDS011;11821;51.456;8.844;2023-04-10T09:30:59;9.65;;;8.75;;
23304;SDS011;11821;51.456;8.844;2023-04-10T09:33:26;8.00;;;7.30;;
23304;SDS011;11821;51.456;8.844;2023-04-10T09:35:57;7.70;;;7.05;;
23304;SDS011;11821;51.456;8.844;2023-04-10T09:38:25;7.78;;;7.07;;
23304;SDS011;11821;51.456;8.844;2023-04-10T09:40:51;7.28;;;6.57;;
23304;SDS011;11821;51.456;8.844;2023-04-10T09:43:25;6.80;;;6.28;;
23304;SDS011;11821;51.456;8.844;2023-04-10T09:45:53;6.50;;;5.93;;
23304;SDS011;11821;51.456;8.844;2023-04-10T09:48:21;7.43;;;6.47;;
23304;SDS011;11821;51.456;8.844;2023-04-10T09:50:47;6.97;;;6.38;;
23304;SDS011;11821;51.456;8.844;2023-04-10T09:53:15;6.82;;;6.22;;
23304;SDS011;11821;51.456;8.844;2023-04-10T09:55:44;6.47;;;5.97;;
23304;SDS011;11821;51.456;8.844;2023-04-10T09:58:11;7.00;;;6.43;;
23304;SDS011;11821;51.456;8.844;2023-04-10T10:00:39;6.45;;;5.95;;
23304;SDS011;11821;51.456;8.844;2023-04-10T10:03:07;6.57;;;6.05;;
23304;SDS011;11821;51.456;8.844;2023-04-10T10:05:39;6.40;;;5.88;;
23304;SDS011;11821;51.456;8.844;2023-04-10T10:08:06;5.68;;;5.25;;
23304;SDS011;11821;51.456;8.844;2023-04-10T10:10:35;6.35;;;5.85;;
23304;SDS011;11821;51.456;8.844;2023-04-10T10:13:02;5.35;;;4.88;;
23304;SDS011;11821;51.456;8.844;2023-04-10T10:18:02;5.88;;;5.38;;
23304;SDS011;11821;51.456;8.844;2023-04-10T10:20:30;5.20;;;4.78;;
23304;SDS011;11821;51.456;8.844;2023-04-10T10:22:57;7.70;;;5.00;;
23304;SDS011;11821;51.456;8.844;2023-04-10T10:25:27;5.28;;;4.88;;
23304;SDS011;11821;51.456;8.844;2023-04-10T10:27:55;5.28;;;4.88;;
23304;SDS011;11821;51.456;8.844;2023-04-10T10:30:23;5.13;;;4.72;;
23304;SDS011;11821;51.456;8.844;2023-04-10T10:32:50;5.38;;;4.93;;
23304;SDS011;11821;51.456;8.844;2023-04-10T10:35:17;5.15;;;4.70;;
23304;SDS011;11821;51.456;8.844;2023-04-10T10:37:44;5.70;;;5.20;;
23304;SDS011;11821;51.456;8.844;2023-04-10T10:40:14;5.82;;;5.32;;
23304;SDS011;11821;51.456;8.844;2023-04-10T10:42:52;5.65;;;5.15;;
23304;SDS011;11821;51.456;8.844;2023-04-10T10:45:24;4.72;;;4.32;;
23304;SDS011;11821;51.456;8.844;2023-04-10T10:47:52;7.75;;;6.97;;
23304;SDS011;11821;51.456;8.844;2023-04-10T10:50:19;5.18;;;4.68;;
23304;SDS011;11821;51.456;8.844;2023-04-10T10:52:48;6.00;;;5.50;;
23304;SDS011;11821;51.456;8.844;2023-04-10T11:05:49;4.35;;;3.95;;
23304;SDS011;11821;51.456;8.844;2023-04-10T11:08:16;6.00;;;5.40;;
23304;SDS011;11821;51.456;8.844;2023-04-10T11:10:59;7.43;;;6.30;;
23304;SDS011;11821;51.456;8.844;2023-04-10T11:13:27;5.32;;;4.82;;
23304;SDS011;11821;51.456;8.844;2023-04-10T11:15:55;4.28;;;3.97;;
23304;SDS011;11821;51.456;8.844;2023-04-10T11:21:07;5.47;;;5.03;;
23304;SDS011;11821;51.456;8.844;2023-04-10T11:23:38;6.00;;;5.40;;
23304;SDS011;11821;51.456;8.844;2023-04-10T11:31:43;4.45;;;4.15;;
23304;SDS011;11821;51.456;8.844;2023-04-10T11:34:10;4.35;;;3.95;;
23304;SDS011;11821;51.456;8.844;2023-04-10T11:36:37;4.63;;;4.22;;
23304;SDS011;11821;51.456;8.844;2023-04-10T11:39:05;4.15;;;3.85;;
23304;SDS011;11821;51.456;8.844;2023-04-10T11:41:35;5.10;;;4.60;;
23304;SDS011;11821;51.456;8.844;2023-04-10T11:44:04;4.00;;;3.70;;
23304;SDS011;11821;51.456;8.844;2023-04-10T11:46:35;7.75;;;5.93;;
23304;SDS011;11821;51.456;8.844;2023-04-10T11:49:02;4.13;;;3.78;;
23304;SDS011;11821;51.456;8.844;2023-04-10T11:51:29;3.80;;;3.50;;
23304;SDS011;11821;51.456;8.844;2023-04-10T11:54:09;4.00;;;3.70;;
23304;SDS011;11821;51.456;8.844;2023-04-10T11:56:36;3.63;;;3.33;;
23304;SDS011;11821;51.456;8.844;2023-04-10T11:59:03;5.78;;;5.18;;
23304;SDS011;11821;51.456;8.844;2023-04-10T12:01:34;3.50;;;3.20;;
23304;SDS011;11821;51.456;8.844;2023-04-10T12:04:01;3.05;;;2.75;;
23304;SDS011;11821;51.456;8.844;2023-04-10T12:06:27;3.92;;;2.35;;
23304;SDS011;11821;51.456;8.844;2023-04-10T12:08:54;5.63;;;3.10;;
23304;SDS011;11821;51.456;8.844;2023-04-10T12:11:22;2.97;;;2.70;;
23304;SDS011;11821;51.456;8.844;2023-04-10T12:13:55;3.65;;;3.35;;
23304;SDS011;11821;51.456;8.844;2023-04-10T12:16:23;3.50;;;2.88;;
23304;SDS011;11821;51.456;8.844;2023-04-10T12:18:50;2.88;;;2.58;;
23304;SDS011;11821;51.456;8.844;2023-04-10T12:21:17;3.95;;;3.13;;
23304;SDS011;11821;51.456;8.844;2023-04-10T12:23:44;2.70;;;2.50;;
23304;SDS011;11821;51.456;8.844;2023-04-10T12:26:14;2.80;;;2.60;;
23304;SDS011;11821;51.456;8.844;2023-04-10T12:28:50;2.47;;;2.28;;
23304;SDS011;11821;51.456;8.844;2023-04-10T12:31:17;2.55;;;2.35;;
23304;SDS011;11821;51.456;8.844;2023-04-10T12:33:44;2.50;;;2.30;;
23304;SDS011;11821;51.456;8.844;2023-04-10T12:36:21;3.13;;;2.90;;
23304;SDS011;11821;51.456;8.844;2023-04-10T12:38:48;2.80;;;2.60;;
23304;SDS011;11821;51.456;8.844;2023-04-10T12:41:19;2.92;;;2.72;;
23304;SDS011;11821;51.456;8.844;2023-04-10T12:43:47;2.95;;;2.75;;
23304;SDS011;11821;51.456;8.844;2023-04-10T12:46:24;3.10;;;2.90;;
23304;SDS011;11821;51.456;8.844;2023-04-10T12:48:51;2.47;;;2.28;;
23304;SDS011;11821;51.456;8.844;2023-04-10T12:51:18;2.78;;;2.58;;
23304;SDS011;11821;51.456;8.844;2023-04-10T12:53:45;2.72;;;2.53;;
23304;SDS011;11821;51.456;8.844;2023-04-10T12:56:12;3.17;;;2.97;;
23304;SDS011;11821;51.456;8.844;2023-04-10T12:58:39;3.20;;;2.90;;
23304;SDS011;11821;51.456;8.844;2023-04-10T13:01:07;2.60;;;2.40;;
23304;SDS011;11821;51.456;8.844;2023-04-10T13:03:34;2.70;;;2.50;;
23304;SDS011;11821;51.456;8.844;2023-04-10T13:06:02;3.00;;;2.80;;
23304;SDS011;11821;51.456;8.844;2023-04-10T13:08:28;3.35;;;3.10;;
23304;SDS011;11821;51.456;8.844;2023-04-10T13:11:00;4.90;;;4.15;;
23304;SDS011;11821;51.456;8.844;2023-04-10T13:13:28;3.95;;;3.00;;
23304;SDS011;11821;51.456;8.844;2023-04-10T13:15:57;3.17;;;2.72;;
23304;SDS011;11821;51.456;8.844;2023-04-10T13:18:24;2.92;;;2.72;;
23304;SDS011;11821;51.456;8.844;2023-04-10T13:20:51;3.25;;;2.95;;
23304;SDS011;11821;51.456;8.844;2023-04-10T13:23:18;3.40;;;3.10;;
23304;SDS011;11821;51.456;8.844;2023-04-10T13:25:44;6.72;;;5.95;;
23304;SDS011;11821;51.456;8.844;2023-04-10T13:28:11;3.53;;;3.22;;
23304;SDS011;11821;51.456;8.844;2023-04-10T13:30:39;3.60;;;3.40;;
23304;SDS011;11821;51.456;8.844;2023-04-10T13:33:06;3.38;;;3.08;;
23304;SDS011;11821;51.456;8.844;2023-04-10T13:35:32;2.83;;;2.63;;
23304;SDS011;11821;51.456;8.844;2023-04-10T13:37:59;2.55;;;2.35;;
23304;SDS011;11821;51.456;8.844;2023-04-10T13:40:26;3.45;;;3.15;;
23304;SDS011;11821;51.456;8.844;2023-04-10T13:42:52;3.15;;;2.70;;
23304;SDS011;11821;51.456;8.844;2023-04-10T13:45:19;3.17;;;2.97;;
23304;SDS011;11821;51.456;8.844;2023-04-10T13:47:46;3.13;;;2.92;;
23304;SDS011;11821;51.456;8.844;2023-04-10T13:50:12;3.30;;;3.10;;
23304;SDS011;11821;51.456;8.844;2023-04-10T13:52:39;5.28;;;3.03;;
23304;SDS011;11821;51.456;8.844;2023-04-10T13:55:06;3.28;;;3.05;;
23304;SDS011;11821;51.456;8.844;2023-04-10T13:57:32;2.85;;;2.60;;
23304;SDS011;11821;51.456;8.844;2023-04-10T13:59:59;3.00;;;2.80;;
23304;SDS011;11821;51.456;8.844;2023-04-10T14:02:25;6.03;;;4.05;;
23304;SDS011;11821;51.456;8.844;2023-04-10T14:04:52;3.00;;;2.72;;
23304;SDS011;11821;51.456;8.844;2023-04-10T14:07:19;4.45;;;3.03;;
23304;SDS011;11821;51.456;8.844;2023-04-10T14:09:45;3.53;;;3.22;;
23304;SDS011;11821;51.456;8.844;2023-04-10T14:12:13;2.90;;;2.70;;
23304;SDS011;11821;51.456;8.844;2023-04-10T14:14:43;3.35;;;3.05;;
23304;SDS011;11821;51.456;8.844;2023-04-10T14:17:10;4.25;;;3.83;;
23304;SDS011;11821;51.456;8.844;2023-04-10T14:19:37;2.97;;;2.78;;
23304;SDS011;11821;51.456;8.844;2023-04-10T14:22:04;2.50;;;2.30;;
23304;SDS011;11821;51.456;8.844;2023-04-10T14:24:31;4.38;;;2.70;;
23304;SDS011;11821;51.456;8.844;2023-04-10T14:26:58;3.63;;;3.33;;
23304;SDS011;11821;51.456;8.844;2023-04-10T14:29:26;4.03;;;2.80;;
23304;SDS011;11821;51.456;8.844;2023-04-10T14:31:53;2.83;;;2.63;;
23304;SDS011;11821;51.456;8.844;2023-04-10T14:34:20;2.10;;;1.90;;
23304;SDS011;11821;51.456;8.844;2023-04-10T14:36:46;3.58;;;2.40;;
23304;SDS011;11821;51.456;8.844;2023-04-10T14:39:13;2.35;;;2.15;;
23304;SDS011;11821;51.456;8.844;2023-04-10T14:41:40;2.00;;;1.77;;
23304;SDS011;11821;51.456;8.844;2023-04-10T14:44:07;2.40;;;2.20;;
23304;SDS011;11821;51.456;8.844;2023-04-10T14:46:33;1.88;;;1.77;;
23304;SDS011;11821;51.456;8.844;2023-04-10T14:49:00;3.58;;;2.88;;
23304;SDS011;11821;51.456;8.844;2023-04-10T14:51:26;1.98;;;1.88;;
23304;SDS011;11821;51.456;8.844;2023-04-10T14:53:53;2.63;;;2.42;;
23304;SDS011;11821;51.456;8.844;2023-04-10T14:56:19;3.03;;;2.60;;
23304;SDS011;11821;51.456;8.844;2023-04-10T14:58:46;8.20;;;6.53;;
23304;SDS011;11821;51.456;8.844;2023-04-10T15:01:13;4.20;;;3.72;;
23304;SDS011;11821;51.456;8.844;2023-04-10T15:03:40;4.93;;;3.88;;
23304;SDS011;11821;51.456;8.844;2023-04-10T15:06:07;4.30;;;3.33;;
23304;SDS011;11821;51.456;8.844;2023-04-10T15:08:33;3.33;;;3.00;;
23304;SDS011;11821;51.456;8.844;2023-04-10T15:11:00;2.17;;;1.98;;
23304;SDS011;11821;51.456;8.844;2023-04-10T15:13:29;2.75;;;2.55;;
23304;SDS011;11821;51.456;8.844;2023-04-10T15:15:56;6.57;;;3.90;;
23304;SDS011;11821;51.456;8.844;2023-04-10T15:18:24;3.88;;;2.58;;
23304;SDS011;11821;51.456;8.844;2023-04-10T15:20:50;5.65;;;4.22;;
23304;SDS011;11821;51.456;8.844;2023-04-10T15:23:17;6.72;;;3.80;;
23304;SDS011;11821;51.456;8.844;2023-04-10T15:25:44;3.28;;;2.97;;
23304;SDS011;11821;51.456;8.844;2023-04-10T15:28:10;3.00;;;2.70;;
23304;SDS011;11821;51.456;8.844;2023-04-10T15:30:37;3.72;;;3.38;;
23304;SDS011;11821;51.456;8.844;2023-04-10T15:33:03;5.10;;;3.90;;
23304;SDS011;11821;51.456;8.844;2023-04-10T15:35:30;3.85;;;3.20;;
23304;SDS011;11821;51.456;8.844;2023-04-10T15:38:04;2.83;;;2.63;;